Time;durP1;ratioP1;P1;durP2;ratioP2;P2;SDS_P1;SDS_P2;PMS_P1;PMS_P2;Temp;Humidity;BMP_temperature;BMP_pressure;BME280_temperature;BME280_humidity;BME280_pressure;Samples;Min_cycle;Max_cycle;Signal;HPM_P1;HPM_P2
2021/09/22 07:42:36;;;;;;;27.73;18.85;;;;;;;9.45;94.79;100322.72;5089733;27;20926;-80
2021/09/22 07:45:09;;;;;;;16.40;10.70;;;;;;;9.51;92.43;100303.97;5089351;28;20131;-81
2021/09/22 07:47:36;;;;;;;13.80;9.52;;;;;;;9.74;92.93;100301.72;5089687;28;20076;-81
2021/09/22 07:50:03;;;;;;;18.50;10.10;;;;;;;10.01;92.42;100302.72;5089140;28;20048;-81
2021/09/22 07:52:30;;;;;;;14.07;10.32;;;;;;;10.22;93.11;100296.09;5086918;28;20048;-81
2021/09/22 07:54:57;;;;;;;19.80;9.90;;;;;;;10.27;90.28;100297.34;5089166;28;20059;-81
2021/09/22 07:57:24;;;;;;;28.92;12.02;;;;;;;10.35;89.68;100293.03;5072216;28;20404;-81
2021/09/22 07:59:52;;;;;;;19.92;10.43;;;;;;;10.58;88.63;100290.69;5069249;28;20056;-81
2021/09/22 08:02:19;;;;;;;16.27;9.65;;;;;;;10.69;89.04;100300.44;5068924;28;20059;-82
2021/09/22 08:04:46;;;;;;;16.27;9.63;;;;;;;10.62;89.42;100287.50;5068528;28;20057;-82
2021/09/22 08:07:13;;;;;;;18.55;12.00;;;;;;;10.67;90.27;100284.28;5087381;28;20056;-81
2021/09/22 08:09:40;;;;;;;16.35;10.90;;;;;;;10.80;89.81;100284.72;5089139;28;20063;-82
2021/09/22 08:12:07;;;;;;;23.77;10.25;;;;;;;10.76;87.29;100291.53;5089476;28;20135;-82
2021/09/22 08:14:35;;;;;;;14.95;9.73;;;;;;;10.83;87.74;100288.16;5071662;28;20087;-81
2021/09/22 08:17:04;;;;;;;23.25;11.35;;;;;;;10.96;87.23;100286.72;5069228;28;20400;-81
2021/09/22 08:19:33;;;;;;;16.63;10.73;;;;;;;11.19;87.79;100294.34;5068707;28;20131;-81
2021/09/22 08:22:00;;;;;;;21.60;10.27;;;;;;;11.18;86.47;100291.78;5068635;28;20056;-81
2021/09/22 08:24:28;;;;;;;25.20;10.73;;;;;;;11.12;86.04;100310.44;5088044;28;20059;-82
2021/09/22 08:26:55;;;;;;;19.70;10.63;;;;;;;11.20;86.20;100298.78;5089492;28;20053;-82
2021/09/22 08:29:22;;;;;;;19.88;9.93;;;;;;;11.39;86.64;100315.88;5083674;28;20132;-81
2021/09/22 08:31:50;;;;;;;25.50;10.55;;;;;;;11.43;84.56;100306.41;5068896;28;20052;-82
2021/09/22 08:34:20;;;;;;;17.63;10.20;;;;;;;11.48;84.64;100301.28;5068200;28;20053;-82
2021/09/22 08:36:48;;;;;;;21.23;9.80;;;;;;;11.57;83.78;100303.03;5068210;28;20083;-82
2021/09/22 08:39:16;;;;;;;18.60;10.90;;;;;;;11.61;84.18;100292.69;5086977;28;20058;-82
2021/09/22 08:41:44;;;;;;;18.27;10.18;;;;;;;11.60;84.59;100297.25;5070137;28;20049;-81
2021/09/22 08:44:12;;;;;;;18.50;11.30;;;;;;;11.90;84.87;100300.44;5068631;28;20068;-82
2021/09/22 08:46:40;;;;;;;23.88;11.50;;;;;;;12.18;83.60;100311.97;5066973;28;20055;-80
2021/09/22 08:49:08;;;;;;;18.80;10.70;;;;;;;12.26;81.84;100302.94;5068132;28;20044;-80
2021/09/22 08:51:38;;;;;;;12.80;10.13;;;;;;;12.48;80.71;100314.19;5068268;28;20053;-80
2021/09/22 08:54:06;;;;;;;28.50;11.80;;;;;;;12.70;82.42;100297.16;5053987;28;20048;-81
2021/09/22 08:56:36;;;;;;;21.35;11.70;;;;;;;12.84;81.92;100305.69;5054645;28;20072;-81
2021/09/22 08:59:03;;;;;;;;;;;;;;;12.69;79.86;100313.69;5055236;28;20048;-80
2021/09/22 09:01:30;;;;;;;23.70;11.07;;;;;;;12.79;80.33;100302.63;5054313;28;19920;-80
2021/09/22 09:03:57;;;;;;;23.52;11.00;;;;;;;12.82;79.41;100291.38;5054755;28;20075;-80
2021/09/22 09:06:30;;;;;;;18.50;10.35;;;;;;;12.91;79.32;100296.63;5054425;28;20045;-81
2021/09/22 09:08:59;;;;;;;20.45;10.90;;;;;;;13.01;77.80;100303.81;5054420;28;20526;-81
2021/09/22 09:11:29;;;;;;;24.25;12.88;;;;;;;12.85;78.36;100305.50;5054550;28;20053;-80
2021/09/22 09:13:58;;;;;;;17.63;9.90;;;;;;;12.99;79.55;100290.34;5034727;28;20049;-81
2021/09/22 09:16:35;;;;;;;15.17;9.40;;;;;;;13.05;77.21;100295.09;5034259;28;20053;-80
2021/09/22 09:19:02;;;;;;;16.17;9.32;;;;;;;13.17;76.80;100300.16;5052191;28;20287;-81
2021/09/22 09:21:29;;;;;;;15.10;10.00;;;;;;;13.30;75.74;100286.84;5054411;28;20040;-80
2021/09/22 09:23:59;;;;;;;14.88;9.13;;;;;;;13.48;75.98;100283.06;5054487;28;20045;-80
2021/09/22 09:26:28;;;;;;;18.17;9.85;;;;;;;13.56;74.46;100289.31;5054637;28;20099;-81
2021/09/22 09:28:57;;;;;;;14.25;8.77;;;;;;;13.62;73.47;100274.97;5053893;28;20064;-80
2021/09/22 09:31:31;;;;;;;13.38;7.95;;;;;;;13.66;73.38;100274.63;5054334;28;20041;-80
2021/09/22 09:33:59;;;;;;;9.70;7.60;;;;;;;13.88;72.98;100275.69;5054003;28;20504;-80
2021/09/22 09:36:30;;;;;;;15.63;8.70;;;;;;;14.06;71.40;100279.00;5053151;28;20471;-80
2021/09/22 09:39:04;;;;;;;16.25;8.25;;;;;;;14.11;70.93;100267.53;5054105;28;20064;-81
2021/09/22 09:41:35;;;;;;;12.50;7.72;;;;;;;14.25;70.62;100261.25;5053775;28;20059;-80
2021/09/22 09:44:04;;;;;;;11.02;7.53;;;;;;;14.38;70.45;100274.34;5054103;28;20068;-80
2021/09/22 09:46:32;;;;;;;12.70;7.65;;;;;;;14.33;70.47;100261.22;5053339;28;20102;-81
2021/09/22 09:49:03;;;;;;;11.75;6.32;;;;;;;14.50;70.74;100264.66;5053937;28;20136;-80
2021/09/22 09:51:38;;;;;;;8.68;6.38;;;;;;;14.53;68.91;100255.25;5053744;28;20502;-80
2021/09/22 09:54:08;;;;;;;12.15;7.18;;;;;;;14.51;69.12;100252.69;5052937;28;20076;-81
2021/09/22 09:56:36;;;;;;;16.67;6.25;;;;;;;14.72;68.22;100261.25;5053739;28;20064;-80
2021/09/22 09:59:04;;;;;;;10.10;6.70;;;;;;;14.58;68.41;100241.84;5053774;28;20084;-81
2021/09/22 10:01:43;;;;;;;11.35;6.07;;;;;;;14.79;69.07;100248.53;5053467;28;20069;-80
2021/09/22 10:04:11;;;;;;;16.30;8.48;;;;;;;14.97;68.26;100240.81;5052116;28;20128;-81
2021/09/22 10:06:43;;;;;;;13.13;6.80;;;;;;;15.15;68.16;100236.88;5053175;28;20492;-80
2021/09/22 10:09:12;;;;;;;11.35;6.63;;;;;;;15.12;67.67;100224.41;5053582;28;20465;-81
2021/09/22 10:11:44;;;;;;;12.07;6.35;;;;;;;15.04;68.70;100219.88;5052952;28;20055;-81
2021/09/22 10:14:12;;;;;;;14.60;6.38;;;;;;;15.18;67.39;100234.59;5053316;28;20053;-80
2021/09/22 10:16:39;;;;;;;10.00;5.95;;;;;;;15.36;68.15;100230.63;5053220;28;20404;-81
2021/09/22 10:19:08;;;;;;;10.25;5.10;;;;;;;15.32;67.09;100221.94;5053199;28;20481;-80
2021/09/22 10:21:37;;;;;;;11.43;6.07;;;;;;;15.37;66.19;100211.25;5052935;28;20045;-81
2021/09/22 10:24:08;;;;;;;10.85;5.63;;;;;;;15.37;66.84;100218.59;5053278;28;20076;-81
2021/09/22 10:26:37;;;;;;;9.70;5.63;;;;;;;15.13;66.92;100206.06;5052734;28;20257;-81
2021/09/22 10:29:22;;;;;;;7.18;5.25;;;;;;;15.27;67.89;100205.22;5052850;28;20049;-81
2021/09/22 10:31:50;;;;;;;12.43;5.47;;;;;;;15.37;67.26;100202.16;5053198;28;20144;-81
2021/09/22 10:34:32;;;;;;;9.32;5.63;;;;;;;15.46;67.02;100192.84;5052499;28;20083;-81
2021/09/22 10:37:00;;;;;;;11.48;6.05;;;;;;;15.75;67.13;100208.34;5052501;28;20416;-81
2021/09/22 10:39:42;;;;;;;11.23;6.40;;;;;;;15.82;65.90;100193.88;5052766;28;20059;-81
2021/09/22 10:42:28;;;;;;;16.88;5.30;;;;;;;15.73;64.69;100204.09;5052834;28;20045;-81
2021/09/22 10:45:17;;;;;;;10.43;7.20;;;;;;;15.85;65.40;100197.13;5050624;28;20052;-81
2021/09/22 10:47:44;;;;;;;8.35;4.70;;;;;;;15.81;64.81;100192.22;5052680;28;20136;-81
2021/09/22 10:50:35;;;;;;;9.02;4.10;;;;;;;16.00;63.76;100212.66;5052794;28;20048;-81
2021/09/22 10:53:02;;;;;;;9.75;5.20;;;;;;;15.98;63.95;100198.28;5052425;28;20052;-81
2021/09/22 10:55:29;;;;;;;7.57;4.53;;;;;;;16.16;63.99;100197.84;5047877;28;20056;-81
2021/09/22 10:58:11;;;;;;;14.32;8.63;;;;;;;16.23;62.74;100201.50;5053058;28;20522;-81
2021/09/22 11:00:40;;;;;;;11.32;8.55;;;;;;;16.51;63.15;100206.16;5052098;28;20049;-82
2021/09/22 11:03:07;;;;;;;10.48;6.80;;;;;;;16.43;63.11;100196.19;5052352;28;20045;-81
2021/09/22 11:05:37;;;;;;;6.32;4.65;;;;;;;16.65;58.61;100202.50;5052151;28;20151;-81
2021/09/22 11:08:05;;;;;;;8.05;3.92;;;;;;;16.68;60.02;100184.75;5052357;28;20045;-81
2021/09/22 11:10:41;;;;;;;6.38;3.88;;;;;;;16.68;59.30;100176.50;5051866;28;20476;-81
2021/09/22 11:13:39;;;;;;;14.70;5.22;;;;;;;16.80;59.32;100163.91;5052786;28;20110;-81
2021/09/22 11:16:18;;;;;;;9.38;4.07;;;;;;;16.92;58.23;100180.72;5050652;28;20098;-82
2021/09/22 11:18:51;;;;;;;25.50;17.88;;;;;;;16.98;57.66;100163.44;5052534;28;20122;-82
2021/09/22 11:21:27;;;;;;;7.72;3.80;;;;;;;16.98;58.48;100156.06;5052069;28;20052;-81
2021/09/22 11:23:54;;;;;;;8.95;4.50;;;;;;;17.22;58.65;100172.22;5052359;28;20053;-81
2021/09/22 11:26:21;;;;;;;5.38;4.30;;;;;;;17.27;56.47;100158.75;5051831;28;20052;-82
2021/09/22 11:28:53;;;;;;;12.65;7.65;;;;;;;17.29;57.50;100170.38;5051630;28;20592;-81
2021/09/22 11:31:21;;;;;;;6.85;3.65;;;;;;;17.36;58.62;100162.13;5052044;28;20106;-81
2021/09/22 11:33:49;;;;;;;3.97;3.25;;;;;;;17.34;56.96;100157.72;5052289;28;20049;-81
2021/09/22 11:36:16;;;;;;;6.15;3.53;;;;;;;17.25;56.42;100158.94;5051228;28;20152;-81
2021/09/22 11:38:43;;;;;;;4.85;3.75;;;;;;;17.30;57.13;100150.91;5052048;28;20140;-81
2021/09/22 11:41:10;;;;;;;5.97;3.50;;;;;;;17.43;59.75;100152.88;5051954;28;20084;-82
2021/09/22 11:43:37;;;;;;;6.38;3.88;;;;;;;17.53;57.12;100149.72;5051848;28;20051;-81
2021/09/22 11:46:05;;;;;;;5.85;3.10;;;;;;;17.51;59.01;100138.09;5051820;28;20044;-82
2021/09/22 11:48:34;;;;;;;6.10;3.58;;;;;;;17.60;57.56;100130.50;5052080;28;20041;-81
2021/09/22 11:51:04;;;;;;;8.77;3.60;;;;;;;17.99;56.97;100149.03;5051504;28;20563;-81
2021/09/22 11:53:33;;;;;;;7.07;4.43;;;;;;;18.06;55.23;100137.19;5051852;28;20045;-81
2021/09/22 11:56:01;;;;;;;5.00;3.45;;;;;;;18.29;56.46;100153.28;5051285;28;20512;-82
2021/09/22 11:58:30;;;;;;;11.27;7.22;;;;;;;18.39;57.30;100157.28;5051753;28;20136;-82
2021/09/22 12:00:58;;;;;;;14.80;7.85;;;;;;;18.70;55.83;100146.69;5051789;28;20052;-82
2021/09/22 12:03:28;;;;;;;4.10;3.22;;;;;;;18.67;54.41;100125.09;5051781;28;20124;-82
2021/09/22 12:06:09;;;;;;;6.47;3.67;;;;;;;18.88;54.67;100130.38;5051157;28;20111;-82
2021/09/22 12:08:39;;;;;;;8.52;3.60;;;;;;;18.83;55.05;100126.53;5052241;28;20425;-81
2021/09/22 12:11:09;;;;;;;5.13;3.50;;;;;;;19.09;53.54;100142.19;5051816;28;20061;-82
2021/09/22 12:13:45;;;;;;;7.28;3.53;;;;;;;18.97;54.71;100130.97;5051823;28;20064;-82
2021/09/22 12:16:13;;;;;;;5.15;2.58;;;;;;;19.00;53.44;100132.44;5051204;28;20452;-81
2021/09/22 12:18:50;;;;;;;4.70;2.65;;;;;;;19.21;53.96;100123.91;5052000;28;20075;-82
2021/09/22 12:21:17;;;;;;;5.05;3.05;;;;;;;19.12;54.18;100111.44;5050967;28;20083;-82
2021/09/22 12:23:44;;;;;;;3.58;2.42;;;;;;;19.03;54.83;100120.97;5031665;28;20493;-82
2021/09/22 12:26:13;;;;;;;5.45;3.00;;;;;;;18.61;53.90;100096.50;5031509;28;20049;-81
2021/09/22 12:28:41;;;;;;;7.45;4.03;;;;;;;18.78;55.00;100110.66;5034296;28;20069;-81
2021/09/22 12:31:17;;;;;;;5.18;2.60;;;;;;;18.82;55.45;100094.53;5035257;28;20511;-82
2021/09/22 12:33:46;;;;;;;5.28;2.28;;;;;;;18.81;54.86;100103.88;5044063;28;20445;-82
2021/09/22 12:36:15;;;;;;;5.53;2.70;;;;;;;18.68;55.09;100080.81;5054639;28;20140;-82
2021/09/22 12:38:49;;;;;;;3.13;1.83;;;;;;;18.90;55.15;100073.13;5055314;28;20128;-82
2021/09/22 12:41:18;;;;;;;4.03;2.40;;;;;;;18.93;53.99;100078.19;5054240;28;20403;-82
2021/09/22 12:43:47;;;;;;;3.22;2.17;;;;;;;18.97;53.50;100070.38;5054805;28;20055;-82
2021/09/22 12:46:17;;;;;;;5.40;1.85;;;;;;;19.00;53.46;100086.47;5054961;28;20041;-81
2021/09/22 12:48:46;;;;;;;5.30;1.75;;;;;;;18.69;54.71;100074.22;5055094;28;20140;-82
2021/09/22 12:51:15;;;;;;;10.60;2.22;;;;;;;18.50;55.61;100064.97;5054572;28;20473;-82
2021/09/22 12:53:47;;;;;;;3.42;2.25;;;;;;;18.43;55.06;100057.75;5054926;28;20136;-82
2021/09/22 12:56:15;;;;;;;3.15;2.10;;;;;;;18.73;56.15;100061.72;5054640;28;20053;-82
2021/09/22 12:58:44;;;;;;;4.50;2.00;;;;;;;18.79;56.22;100054.50;5054231;28;20049;-82
2021/09/22 13:01:12;;;;;;;3.35;1.95;;;;;;;18.86;56.56;100037.97;5054475;28;20456;-82
2021/09/22 13:03:42;;;;;;;4.38;2.28;;;;;;;18.70;54.06;100048.38;5054809;28;20152;-82
2021/09/22 13:06:16;;;;;;;4.07;2.30;;;;;;;18.97;54.46;100042.81;5054780;28;20052;-82
2021/09/22 13:08:52;;;;;;;4.57;2.33;;;;;;;18.82;54.72;100045.81;5054411;28;20453;-82
2021/09/22 13:11:20;;;;;;;3.53;1.85;;;;;;;18.87;54.06;100032.25;5054564;28;20044;-82
2021/09/22 13:13:51;;;;;;;2.65;1.88;;;;;;;19.10;54.84;100034.50;5054209;28;20077;-82
2021/09/22 13:16:32;;;;;;;3.65;2.00;;;;;;;19.07;55.01;100037.69;5053747;28;20140;-83
2021/09/22 13:19:01;;;;;;;1.98;1.40;;;;;;;18.95;54.87;100024.81;5054313;28;20056;-82
2021/09/22 13:21:30;;;;;;;3.60;2.20;;;;;;;19.05;54.06;100034.28;5054625;28;20057;-82
2021/09/22 13:23:58;;;;;;;2.65;1.83;;;;;;;18.96;55.05;100012.72;5054341;28;20049;-82
2021/09/22 13:26:26;;;;;;;11.20;2.13;;;;;;;18.86;55.29;100025.06;5053862;28;20177;-82
2021/09/22 13:28:55;;;;;;;4.75;2.10;;;;;;;18.81;54.71;100019.31;5054441;28;20440;-82
2021/09/22 13:31:22;;;;;;;3.40;1.73;;;;;;;18.78;55.24;100011.50;5053450;28;20507;-82
2021/09/22 13:33:49;;;;;;;5.32;1.73;;;;;;;19.04;55.14;100016.06;5054439;28;20099;-82
2021/09/22 13:36:17;;;;;;;5.80;2.42;;;;;;;19.04;53.53;100002.28;5053391;28;20095;-82
2021/09/22 13:38:47;;;;;;;2.97;2.20;;;;;;;18.77;54.32;100015.28;5053887;28;20049;-82
2021/09/22 13:41:45;;;;;;;;;;;;;;;18.66;54.92;100010.47;5053844;28;20127;-83
2021/09/22 13:44:13;;;;;;;3.88;2.00;;;;;;;18.58;56.10;99989.53;5029518;28;20391;-83
2021/09/22 13:46:45;;;;;;;3.25;1.70;;;;;;;18.69;56.98;99985.25;5054537;28;20135;-83
2021/09/22 13:49:13;;;;;;;1.88;1.63;;;;;;;18.83;55.44;99989.63;5053241;28;20395;-83
2021/09/22 13:51:41;;;;;;;5.75;1.90;;;;;;;18.97;54.38;99997.88;5053604;28;20057;-83
2021/09/22 13:54:14;;;;;;;8.23;1.85;;;;;;;19.30;55.47;100005.97;5054504;28;20053;-83
2021/09/22 13:56:46;;;;;;;3.85;1.83;;;;;;;19.25;54.18;100000.25;5053186;28;20504;-83
2021/09/22 13:59:14;;;;;;;2.80;1.80;;;;;;;19.33;53.95;99997.25;5053807;28;20045;-83
2021/09/22 14:01:45;;;;;;;3.95;1.52;;;;;;;19.26;54.44;99994.53;5053524;28;20084;-83
2021/09/22 14:04:12;;;;;;;3.80;1.73;;;;;;;19.19;53.97;99987.38;5053034;28;20314;-83
2021/09/22 14:06:39;;;;;;;2.63;1.70;;;;;;;19.31;54.25;99995.78;5052700;28;20115;-83
2021/09/22 14:09:08;;;;;;;3.25;2.00;;;;;;;19.39;53.15;100003.75;5053549;28;20139;-83
2021/09/22 14:11:39;;;;;;;3.53;1.88;;;;;;;19.39;54.09;100006.53;5053386;28;20135;-83
2021/09/22 14:14:09;;;;;;;2.00;1.73;;;;;;;19.31;55.09;99988.34;5053758;28;20045;-83
2021/09/22 14:16:37;;;;;;;5.53;1.80;;;;;;;19.35;55.15;99995.09;5052780;28;20059;-83
2021/09/22 14:19:10;;;;;;;5.30;1.85;;;;;;;19.12;54.36;99976.41;5053160;28;20443;-83
2021/09/22 14:31:10;;;;;;;3.00;1.65;;;;;;;19.85;53.53;99972.25;4936465;28;20056;-83
2021/09/22 14:33:55;;;;;;;2.95;1.50;;;;;;;20.03;52.92;99979.72;5051765;28;20045;-83
2021/09/22 14:36:26;;;;;;;3.45;1.88;;;;;;;19.87;52.04;99977.53;5053652;28;20071;-84
2021/09/22 14:38:56;;;;;;;6.50;1.75;;;;;;;19.89;52.71;99964.38;5050848;28;20370;-85
2021/09/22 14:41:26;;;;;;;;;;;;;;;19.84;52.95;99980.75;5044344;28;20057;-83
2021/09/22 14:43:53;;;;;;;3.78;1.60;;;;;;;19.77;53.21;99961.47;5048251;28;19920;-83
2021/09/22 14:46:22;;;;;;;6.10;2.03;;;;;;;19.68;52.53;99971.13;5051908;28;20159;-82
2021/09/22 14:48:49;;;;;;;9.40;2.22;;;;;;;19.80;51.46;99970.19;5050948;28;20059;-82
2021/09/22 14:51:18;;;;;;;3.28;1.98;;;;;;;19.64;52.75;99960.50;5039279;28;20068;-82
2021/09/22 14:53:45;;;;;;;2.58;2.08;;;;;;;19.51;53.37;99976.31;5049479;28;20049;-83
2021/09/22 15:02:47;;;;;;;3.65;1.65;;;;;;;19.06;54.11;99964.34;5010276;28;20507;-82
2021/09/22 15:05:15;;;;;;;4.10;2.00;;;;;;;18.77;55.00;99965.72;5010954;28;20045;-82
2021/09/22 15:07:45;;;;;;;4.68;1.83;;;;;;;18.64;55.96;99961.13;5010336;28;20049;-83
2021/09/22 15:10:20;;;;;;;;;;;;;;;18.58;57.19;99973.03;5046551;28;20045;-82
2021/09/22 15:12:56;;;;;;;6.53;2.17;;;;;;;18.42;57.05;99959.75;5053559;28;19921;-82
2021/09/22 15:15:27;;;;;;;2.85;2.20;;;;;;;18.47;57.33;99968.19;5051930;28;20056;-81
2021/09/22 15:17:56;;;;;;;7.75;2.35;;;;;;;18.42;58.03;99946.81;5052168;28;20045;-81
2021/09/22 15:20:26;;;;;;;4.25;2.08;;;;;;;18.16;58.40;99953.25;5042739;28;20052;-82
2021/09/22 15:22:53;;;;;;;5.32;2.10;;;;;;;18.20;58.73;99954.50;5049941;28;20047;-83
2021/09/22 15:25:21;;;;;;;3.45;2.08;;;;;;;18.45;58.68;99957.38;5051416;28;20045;-82
2021/09/22 15:27:49;;;;;;;7.32;2.35;;;;;;;18.46;58.38;99950.00;5050141;28;20049;-82
2021/09/22 15:30:17;;;;;;;3.38;1.60;;;;;;;18.70;57.65;99951.16;5050411;28;20047;-82
2021/09/22 15:32:45;;;;;;;3.85;2.00;;;;;;;18.75;57.38;99962.34;5052084;28;20053;-82
2021/09/22 15:35:14;;;;;;;3.60;1.88;;;;;;;18.76;57.87;99950.28;5050788;28;20135;-82
2021/09/22 15:37:41;;;;;;;5.10;2.30;;;;;;;18.78;57.55;99963.81;5051419;28;20080;-82
2021/09/22 15:40:11;;;;;;;5.30;1.95;;;;;;;18.60;55.45;99937.00;5051655;28;20458;-82
2021/09/22 15:42:39;;;;;;;5.07;1.50;;;;;;;18.53;56.58;99950.78;5051547;28;20059;-82
2021/09/22 15:45:09;;;;;;;1.95;1.27;;;;;;;18.50;57.48;99930.06;5051470;28;20049;-82
2021/09/22 15:47:36;;;;;;;7.13;2.08;;;;;;;18.66;58.57;99936.97;5051086;28;20105;-82
2021/09/22 15:50:03;;;;;;;5.28;1.90;;;;;;;18.33;58.95;99926.94;5051009;28;20052;-82
2021/09/22 15:52:31;;;;;;;2.25;1.67;;;;;;;18.20;59.77;99930.59;5051889;28;20045;-82
2021/09/22 15:54:58;;;;;;;1.92;1.67;;;;;;;18.07;59.44;99927.88;5050708;28;20048;-82
2021/09/22 15:57:25;;;;;;;4.57;1.63;;;;;;;17.91;59.40;99920.06;5051355;28;20049;-82
2021/09/22 15:59:52;;;;;;;3.72;1.73;;;;;;;17.93;60.37;99935.31;5051275;28;20056;-82
2021/09/22 16:02:21;;;;;;;3.90;1.52;;;;;;;17.67;60.64;99916.91;5051218;28;20497;-82
2021/09/22 16:04:48;;;;;;;2.88;1.40;;;;;;;17.69;61.30;99925.78;5054203;28;20072;-82
2021/09/22 16:07:20;;;;;;;5.47;2.47;;;;;;;17.78;62.64;99934.66;5055320;28;20049;-82
2021/09/22 16:09:49;;;;;;;2.05;1.50;;;;;;;17.73;62.55;99931.69;5055646;28;20044;-82
2021/09/22 16:12:20;;;;;;;2.83;1.80;;;;;;;17.60;62.73;99933.41;5054755;28;20049;-82
2021/09/22 16:14:51;;;;;;;11.10;2.35;;;;;;;17.47;63.16;99925.16;5054582;28;20136;-82
2021/09/22 16:17:18;;;;;;;3.10;1.15;;;;;;;17.39;62.84;99922.59;5055457;28;20455;-82
2021/09/22 16:19:51;;;;;;;3.00;1.45;;;;;;;17.26;63.74;99927.03;5054266;28;20408;-81
2021/09/22 16:22:18;;;;;;;3.08;1.80;;;;;;;17.17;62.44;99915.41;5055018;28;20055;-82
2021/09/22 16:24:51;;;;;;;4.55;1.77;;;;;;;17.07;64.81;99911.38;5054880;28;20448;-82
2021/09/22 16:27:22;;;;;;;2.58;1.73;;;;;;;17.00;65.91;99927.88;5054535;28;20052;-81
2021/09/22 16:29:50;;;;;;;3.85;1.50;;;;;;;16.92;66.73;99922.56;5054428;28;20530;-82
2021/09/22 16:32:17;;;;;;;7.05;1.50;;;;;;;16.67;68.74;99903.88;5055281;28;20090;-83
2021/09/22 16:34:46;;;;;;;8.10;1.83;;;;;;;16.55;69.64;99903.63;5054238;28;20056;-82
2021/09/22 16:37:13;;;;;;;3.85;1.60;;;;;;;16.44;71.28;99915.22;5053679;28;20500;-82
2021/09/22 16:39:40;;;;;;;1.85;1.42;;;;;;;16.39;71.84;99920.47;5054880;28;20056;-82
2021/09/22 16:42:07;;;;;;;4.72;1.85;;;;;;;16.40;71.27;99922.16;5054833;28;20041;-81
2021/09/22 16:44:35;;;;;;;2.28;1.60;;;;;;;16.36;72.30;99923.63;5054681;28;20132;-82
2021/09/22 16:47:02;;;;;;;4.10;1.80;;;;;;;16.21;73.91;99921.00;5053977;28;20048;-82
2021/09/22 16:49:29;;;;;;;4.85;1.70;;;;;;;16.05;75.98;99914.81;5053968;28;20056;-82
2021/09/22 16:51:57;;;;;;;2.20;1.30;;;;;;;15.81;78.21;99907.91;5054809;28;20481;-81
2021/09/22 16:54:24;;;;;;;2.78;1.63;;;;;;;15.84;77.50;99928.63;5054434;28;20455;-82
2021/09/22 16:56:51;;;;;;;2.60;1.80;;;;;;;15.56;78.96;99913.81;5053358;28;20136;-82
2021/09/22 16:59:18;;;;;;;3.30;1.58;;;;;;;15.39;79.80;99909.69;5054576;28;20060;-82
2021/09/22 17:01:59;;;;;;;4.18;1.80;;;;;;;15.39;80.13;99926.97;5053948;28;20068;-82
2021/09/22 17:04:27;;;;;;;3.95;1.88;;;;;;;15.30;79.79;99913.63;5053347;28;20053;-82
2021/09/22 17:07:03;;;;;;;2.72;1.73;;;;;;;15.20;79.42;99903.84;5054573;28;20045;-82
2021/09/22 17:09:30;;;;;;;2.92;2.00;;;;;;;15.18;78.66;99922.34;5054360;28;20114;-82
2021/09/22 17:11:58;;;;;;;3.55;1.85;;;;;;;14.97;78.83;99900.47;5053031;28;20053;-82
2021/09/22 17:14:25;;;;;;;2.03;1.38;;;;;;;15.02;77.91;99909.78;5052857;28;20041;-82
2021/09/22 17:17:05;;;;;;;3.20;1.70;;;;;;;14.94;78.57;99917.28;5053564;28;20128;-81
2021/09/22 17:19:39;;;;;;;5.50;2.92;;;;;;;14.78;79.60;99911.00;5053193;28;20049;-81
2021/09/22 17:22:07;;;;;;;4.88;1.92;;;;;;;14.69;79.82;99915.78;5053708;28;20045;-81
2021/09/22 17:24:34;;;;;;;3.65;2.13;;;;;;;14.62;79.35;99906.63;5053932;28;20049;-82
2021/09/22 17:27:16;;;;;;;4.32;1.90;;;;;;;14.40;80.91;99902.97;5053862;28;20059;-82
2021/09/22 17:29:53;;;;;;;3.75;1.63;;;;;;;14.31;82.10;99912.31;5053012;28;20490;-82
2021/09/22 17:32:35;;;;;;;5.18;1.77;;;;;;;14.23;82.92;99915.19;5053771;28;20452;-81
2021/09/22 17:35:04;;;;;;;2.95;1.83;;;;;;;14.14;82.64;99900.75;5052991;28;20045;-81
2021/09/22 17:37:34;;;;;;;2.17;1.50;;;;;;;13.96;84.14;99904.72;5053530;28;20057;-81
2021/09/22 17:40:02;;;;;;;2.10;1.90;;;;;;;13.95;85.85;99915.84;5053363;28;20064;-81
2021/09/22 17:42:45;;;;;;;4.05;2.40;;;;;;;13.91;86.66;99917.25;5052833;28;20049;-81
2021/09/22 17:45:12;;;;;;;4.97;1.88;;;;;;;13.85;86.92;99904.34;5050952;28;20060;-82
2021/09/22 17:48:26;;;;;;;3.60;1.80;;;;;;;13.72;87.53;99907.75;5052579;28;20083;-81
2021/09/22 17:50:54;;;;;;;6.60;2.10;;;;;;;13.60;87.82;99915.53;5048876;28;20053;-82
2021/09/22 17:53:30;;;;;;;4.95;2.53;;;;;;;13.50;87.63;99904.03;5053292;28;20481;-81
2021/09/22 17:55:57;;;;;;;3.88;2.40;;;;;;;13.48;87.66;99906.09;5038997;28;20086;-81
2021/09/22 17:58:27;;;;;;;9.18;5.22;;;;;;;13.36;87.81;99900.25;5052426;28;20044;-81
2021/09/22 18:00:56;;;;;;;35.05;15.05;;;;;;;13.33;88.70;99919.69;5053461;28;20148;-81
2021/09/22 18:03:25;;;;;;;36.45;15.43;;;;;;;13.17;89.17;99916.09;5053230;28;20052;-82
2021/09/22 18:05:54;;;;;;;23.90;9.63;;;;;;;12.97;89.55;99915.72;5051905;28;20048;-81
2021/09/22 18:08:21;;;;;;;20.42;7.72;;;;;;;12.83;89.70;99895.53;5051860;28;20099;-81
2021/09/22 18:10:51;;;;;;;7.53;4.18;;;;;;;12.79;90.43;99909.72;5053263;28;20404;-81
2021/09/22 18:13:18;;;;;;;12.50;4.40;;;;;;;12.81;90.14;99913.09;5049619;28;20055;-81
2021/09/22 18:18:46;;;;;;;12.18;3.15;;;;;;;12.59;91.22;99907.44;5007066;28;20076;-81
2021/09/22 18:21:22;;;;;;;5.05;2.80;;;;;;;12.71;90.80;99916.06;5033936;28;20050;-82
2021/09/22 18:23:49;;;;;;;3.58;2.33;;;;;;;12.50;91.17;99920.28;5034415;28;20049;-81
2021/09/22 18:26:17;;;;;;;5.47;2.30;;;;;;;12.36;91.47;99919.16;5032607;28;20049;-80
2021/09/22 18:28:46;;;;;;;5.50;2.22;;;;;;;12.14;91.96;99909.03;5046324;28;20041;-81
2021/09/22 18:31:14;;;;;;;3.55;2.40;;;;;;;12.15;92.11;99919.78;5052786;28;20052;-81
2021/09/22 18:33:41;;;;;;;4.43;2.35;;;;;;;12.02;92.97;99914.88;5051970;28;20048;-81
2021/09/22 18:36:09;;;;;;;3.65;2.88;;;;;;;11.83;93.20;99898.91;5051538;28;20052;-81
2021/09/22 18:38:40;;;;;;;5.65;2.67;;;;;;;11.85;92.90;99896.88;5050869;28;20404;-81
2021/09/22 18:41:13;;;;;;;6.40;3.20;;;;;;;12.06;92.41;99909.06;5051962;28;20095;-81
2021/09/22 18:43:47;;;;;;;5.55;3.72;;;;;;;11.92;92.61;99916.91;5052536;28;20063;-81
2021/09/22 18:49:00;;;;;;;5.68;4.20;;;;;;;11.82;92.05;99911.69;5050133;28;20071;-81
2021/09/22 18:51:31;;;;;;;4.97;3.58;;;;;;;11.77;92.25;99903.19;5052184;28;20049;-81
2021/09/22 18:54:34;;;;;;;5.90;2.85;;;;;;;11.58;93.20;99909.03;5051501;28;20408;-81
2021/09/22 18:57:25;;;;;;;8.88;3.40;;;;;;;11.36;94.67;99905.13;5050526;28;20060;-81
2021/09/22 18:59:52;;;;;;;5.82;3.78;;;;;;;11.33;94.42;99914.47;5052251;28;20067;-80
2021/09/22 19:02:22;;;;;;;6.07;3.40;;;;;;;11.33;93.84;99918.06;5052266;28;20146;-81
2021/09/22 19:04:49;;;;;;;;;;;;;;;11.38;94.25;99931.19;5050070;28;20494;-81
2021/09/22 19:07:27;;;;;;;4.68;3.25;;;;;;;11.29;94.03;99919.44;5051798;28;19978;-81
2021/09/22 19:10:12;;;;;;;6.10;2.65;;;;;;;11.12;94.86;99924.00;5051889;28;20049;-81
2021/09/22 19:12:42;;;;;;;3.15;2.45;;;;;;;11.32;94.29;99923.66;5051618;28;20443;-80
2021/09/22 19:15:16;;;;;;;5.40;2.88;;;;;;;11.20;94.53;99930.47;5051652;28;20045;-81
2021/09/22 19:17:45;;;;;;;4.47;2.60;;;;;;;11.26;93.89;99935.25;5037062;28;20458;-81
2021/09/22 19:20:20;;;;;;;5.93;2.55;;;;;;;11.06;94.58;99940.19;5051458;28;20407;-81
2021/09/22 19:23:11;;;;;;;;;;;;;;;;;;;;;
2021/09/22 19:25:41;;;;;;;4.55;2.58;;;;;;;10.91;94.90;99919.06;5048841;28;20060;-81
2021/09/22 19:28:16;;;;;;;4.13;2.83;;;;;;;10.70;96.13;99918.72;5051634;28;20045;-80
2021/09/22 19:30:58;;;;;;;4.60;2.30;;;;;;;10.62;96.16;99911.41;5050745;28;20118;-81
2021/09/22 19:33:25;;;;;;;3.80;2.90;;;;;;;10.61;96.58;99902.41;5050984;28;20443;-80
2021/09/22 19:36:03;;;;;;;5.93;2.85;;;;;;;10.58;96.96;99908.16;5050336;28;20052;-81
2021/09/22 19:38:39;;;;;;;5.75;3.00;;;;;;;10.75;96.71;99911.75;5051761;28;20067;-81
2021/09/22 19:41:12;;;;;;;4.75;3.05;;;;;;;10.84;96.61;99917.19;5051280;28;20060;-80
2021/09/22 19:43:47;;;;;;;5.28;3.33;;;;;;;10.94;96.70;99907.00;5051408;28;20056;-80
2021/09/22 19:46:14;;;;;;;5.88;3.60;;;;;;;10.98;96.88;99920.09;5052389;28;20049;-80
2021/09/22 19:48:45;;;;;;;8.18;3.83;;;;;;;10.93;97.48;99900.72;5051545;28;20136;-80